Time;durP1;ratioP1;P1;durP2;ratioP2;P2;SDS_P1;SDS_P2;PMS_P1;PMS_P2;Temp;Humidity;BMP_temperature;BMP_pressure;BME280_temperature;BME280_humidity;BME280_pressure;Samples;Min_cycle;Max_cycle;Signal;HPM_P1;HPM_P2
2021/07/17 00:01:54;;;;;;;4.53;2.15;;;;;;;;;;4991489;28;20033;-88
2021/07/17 00:04:20;;;;;;;6.90;2.83;;;;;;;;;;4976437;28;20027;-90
2021/07/17 00:06:45;;;;;;;5.88;2.42;;;;;;;;;;4975201;28;20471;-91
2021/07/17 00:09:14;;;;;;;6.88;2.28;;;;;;;;;;4975627;28;20030;-90
2021/07/17 00:11:40;;;;;;;6.75;2.03;;;;;;;;;;4976588;28;20027;-90
2021/07/17 00:14:05;;;;;;;5.90;2.53;;;;;;;;;;4975118;28;20030;-89
2021/07/17 00:16:31;;;;;;;6.85;1.98;;;;;;;;;;4976344;28;20019;-90
2021/07/17 00:18:57;;;;;;;9.27;2.35;;;;;;;;;;4976162;28;20025;-90
2021/07/17 00:21:23;;;;;;;5.80;2.00;;;;;;;;;;4974852;28;20030;-89
2021/07/17 00:23:50;;;;;;;5.15;2.78;;;;;;;;;;4976182;28;20489;-90
2021/07/17 00:26:15;;;;;;;4.68;2.13;;;;;;;;;;4976170;28;20030;-89
2021/07/17 00:28:41;;;;;;;3.78;1.80;;;;;;;;;;4975159;28;20034;-91
2021/07/17 00:31:07;;;;;;;4.68;1.88;;;;;;;;;;4977036;28;20031;-89
2021/07/17 00:33:32;;;;;;;5.88;2.53;;;;;;;;;;4977875;28;20489;-91
2021/07/17 00:35:58;;;;;;;5.07;2.22;;;;;;;;;;4975946;28;20034;-90
2021/07/17 00:38:24;;;;;;;5.30;2.38;;;;;;;;;;4975874;28;20027;-90
2021/07/17 00:40:49;;;;;;;8.23;2.45;;;;;;;;;;4975172;28;20078;-92
2021/07/17 00:43:15;;;;;;;5.38;2.38;;;;;;;;;;4990893;28;20093;-89
2021/07/17 00:45:41;;;;;;;5.97;2.58;;;;;;;;;;4974790;28;20027;-89
2021/07/17 00:48:07;;;;;;;7.47;2.97;;;;;;;;;;4974602;28;20042;-89
2021/07/17 00:50:32;;;;;;;5.13;2.40;;;;;;;;;;4975944;28;20062;-94
2021/07/17 00:53:01;;;;;;;6.78;2.35;;;;;;;;;;4974177;28;20051;-89
2021/07/17 00:55:28;;;;;;;4.50;1.98;;;;;;;;;;4974158;28;20038;-92
2021/07/17 00:57:55;;;;;;;5.40;2.50;;;;;;;;;;4974233;28;20034;-88
2021/07/17 01:00:21;;;;;;;8.18;2.85;;;;;;;;;;4974177;28;20062;-89
2021/07/17 01:02:59;;;;;;;7.05;2.75;;;;;;;;;;4975354;28;20027;-91
2021/07/17 01:05:24;;;;;;;4.07;2.20;;;;;;;;;;4974308;28;20031;-92
2021/07/17 01:07:50;;;;;;;6.30;2.03;;;;;;;;;;4990141;28;20030;-89
2021/07/17 01:10:18;;;;;;;5.38;3.85;;;;;;;;;;4975205;28;20391;-90
2021/07/17 01:12:46;;;;;;;6.85;2.67;;;;;;;;;;4975103;28;20034;-91
2021/07/17 01:15:11;;;;;;;7.00;2.72;;;;;;;;;;4973918;28;20037;-93
2021/07/17 01:18:24;;;;;;;;;;;;;;;;;;;;;
2021/07/17 01:20:57;;;;;;;5.75;2.78;;;;;;;;;;4975249;28;20394;-91
2021/07/17 01:23:23;;;;;;;5.78;2.33;;;;;;;;;;4973868;28;20122;-91
2021/07/17 01:25:49;;;;;;;5.03;2.22;;;;;;;;;;4973628;28;20542;-92
2021/07/17 01:28:15;;;;;;;7.40;2.67;;;;;;;;;;4974903;28;20029;-91
2021/07/17 01:30:41;;;;;;;4.43;2.75;;;;;;;;;;4974981;28;20059;-91
2021/07/17 01:33:07;;;;;;;5.38;2.33;;;;;;;;;;4973577;28;20117;-91
2021/07/17 01:35:33;;;;;;;7.78;2.83;;;;;;;;;;4975067;28;20030;-92
2021/07/17 01:37:59;;;;;;;6.05;2.97;;;;;;;;;;4974846;28;20035;-91
2021/07/17 01:41:03;;;;;;;6.95;2.63;;;;;;;;;;4974560;28;20868;-90
2021/07/17 01:43:28;;;;;;;4.75;2.20;;;;;;;;;;4987892;28;20035;-92
2021/07/17 01:46:01;;;;;;;5.95;2.55;;;;;;;;;;4973718;28;20488;-91
2021/07/17 01:48:27;;;;;;;7.10;2.28;;;;;;;;;;4974675;28;20031;-91
2021/07/17 01:50:53;;;;;;;6.20;2.22;;;;;;;;;;4973416;28;20038;-91
2021/07/17 01:53:20;;;;;;;4.75;2.10;;;;;;;;;;4974826;28;20039;-90
2021/07/17 01:55:45;;;;;;;5.80;2.38;;;;;;;;;;4973925;28;20027;-89
2021/07/17 01:58:11;;;;;;;11.25;2.95;;;;;;;;;;4973345;28;20033;-92
2021/07/17 02:00:38;;;;;;;6.78;2.47;;;;;;;;;;4973704;28;20027;-92
2021/07/17 02:03:06;;;;;;;10.50;3.70;;;;;;;;;;4973266;28;20103;-89
2021/07/17 02:05:31;;;;;;;4.22;2.20;;;;;;;;;;4973938;28;20112;-90
2021/07/17 02:08:04;;;;;;;5.70;2.83;;;;;;;;;;4974505;28;20070;-88
2021/07/17 02:10:33;;;;;;;7.82;3.60;;;;;;;;;;4977561;28;20430;-90
2021/07/17 02:13:05;;;;;;;4.47;2.35;;;;;;;;;;4977202;28;20580;-90
2021/07/17 02:15:33;;;;;;;4.57;2.47;;;;;;;;;;4978719;28;20379;-93
2021/07/17 02:18:00;;;;;;;5.50;2.13;;;;;;;;;;4978536;28;20089;-91
2021/07/17 02:20:35;;;;;;;5.07;2.40;;;;;;;;;;4978945;28;20105;-91
2021/07/17 02:23:01;;;;;;;4.60;2.00;;;;;;;;;;4978988;28;20027;-91
2021/07/17 02:25:27;;;;;;;5.32;2.67;;;;;;;;;;4977320;28;20030;-92
2021/07/17 02:27:55;;;;;;;9.23;3.10;;;;;;;;;;4978483;28;20030;-91
2021/07/17 02:30:21;;;;;;;6.95;2.80;;;;;;;;;;4977114;28;20035;-92
2021/07/17 02:32:47;;;;;;;5.68;2.55;;;;;;;;;;4977089;28;20031;-92
2021/07/17 02:35:12;;;;;;;8.63;3.53;;;;;;;;;;4976910;28;20105;-91
2021/07/17 02:37:39;;;;;;;6.70;3.40;;;;;;;;;;4977249;28;20042;-93
2021/07/17 02:40:06;;;;;;;9.80;3.67;;;;;;;;;;4977627;28;20398;-91
2021/07/17 02:42:33;;;;;;;12.15;4.50;;;;;;;;;;4976403;28;20069;-91
2021/07/17 02:44:59;;;;;;;6.47;3.83;;;;;;;;;;4976421;28;20443;-92
2021/07/17 02:47:24;;;;;;;8.27;3.55;;;;;;;;;;4977775;28;20066;-90
2021/07/17 02:49:50;;;;;;;8.63;3.78;;;;;;;;;;4977765;28;20376;-92
2021/07/17 02:52:16;;;;;;;7.22;3.80;;;;;;;;;;4976183;28;20030;-91
2021/07/17 02:54:41;;;;;;;6.43;3.17;;;;;;;;;;4977967;28;20038;-92
2021/07/17 02:57:07;;;;;;;5.38;2.35;;;;;;;;;;4976516;28;20035;-91
2021/07/17 02:59:33;;;;;;;6.28;3.60;;;;;;;;;;4977682;28;20050;-91
2021/07/17 03:01:58;;;;;;;8.40;3.15;;;;;;;;;;4976485;28;20126;-92
2021/07/17 03:04:24;;;;;;;7.75;3.33;;;;;;;;;;4976358;28;20031;-92
2021/07/17 03:06:49;;;;;;;5.85;3.50;;;;;;;;;;4976342;28;20113;-92
2021/07/17 03:09:17;;;;;;;6.43;3.58;;;;;;;;;;4977442;28;20372;-92
2021/07/17 03:11:43;;;;;;;6.18;3.65;;;;;;;;;;4976094;28;20055;-92
2021/07/17 03:14:08;;;;;;;6.95;4.05;;;;;;;;;;4977631;28;20105;-92
2021/07/17 03:16:34;;;;;;;9.98;3.78;;;;;;;;;;4976009;28;20138;-91
2021/07/17 03:19:00;;;;;;;6.97;4.57;;;;;;;;;;4976530;28;20046;-91
2021/07/17 03:21:27;;;;;;;13.75;4.03;;;;;;;;;;4975735;28;20023;-91
2021/07/17 03:23:53;;;;;;;6.95;3.80;;;;;;;;;;4977167;28;20058;-91
2021/07/17 03:26:19;;;;;;;8.73;3.65;;;;;;;;;;4975782;28;20026;-91
2021/07/17 03:28:44;;;;;;;12.90;3.88;;;;;;;;;;4977185;28;20542;-91
2021/07/17 03:31:10;;;;;;;9.00;4.78;;;;;;;;;;4975893;28;20031;-91
2021/07/17 03:33:36;;;;;;;9.10;4.07;;;;;;;;;;4977105;28;20050;-90
2021/07/17 03:36:05;;;;;;;5.43;3.40;;;;;;;;;;4991916;28;20033;-91
2021/07/17 03:38:30;;;;;;;6.55;3.38;;;;;;;;;;4975616;28;20479;-91
2021/07/17 03:40:56;;;;;;;10.25;2.97;;;;;;;;;;4977053;28;20045;-91
2021/07/17 03:43:22;;;;;;;8.10;3.42;;;;;;;;;;4975511;28;20049;-91
2021/07/17 03:45:48;;;;;;;5.85;2.63;;;;;;;;;;4975833;28;20070;-91
2021/07/17 03:48:27;;;;;;;;;;;;;;;;;;;;;
2021/07/17 03:50:55;;;;;;;5.78;2.95;;;;;;;;;;4977252;28;20027;-92
2021/07/17 03:53:21;;;;;;;7.18;2.80;;;;;;;;;;4975680;28;20097;-92
2021/07/17 03:55:46;;;;;;;4.65;2.17;;;;;;;;;;4975656;28;20023;-91
2021/07/17 03:58:15;;;;;;;5.97;3.03;;;;;;;;;;4975224;28;20118;-89
2021/07/17 04:00:41;;;;;;;9.93;3.08;;;;;;;;;;4975326;28;20023;-91
2021/07/17 04:03:06;;;;;;;5.75;2.25;;;;;;;;;;4975485;28;20022;-90
2021/07/17 04:05:32;;;;;;;6.20;3.13;;;;;;;;;;4977331;28;20418;-92
2021/07/17 04:08:11;;;;;;;5.82;2.55;;;;;;;;;;4976100;28;20117;-92
2021/07/17 04:14:36;;;;;;;6.95;2.53;;;;;;;;;;4976747;28;20053;-93
2021/07/17 04:17:02;;;;;;;6.70;3.50;;;;;;;;;;4916994;29;20421;-90
2021/07/17 04:19:27;;;;;;;5.75;2.95;;;;;;;;;;4916763;29;20041;-91
2021/07/17 04:21:53;;;;;;;7.35;2.35;;;;;;;;;;4900880;29;20028;-90
2021/07/17 04:24:19;;;;;;;6.00;4.30;;;;;;;;;;4916705;29;20099;-90
2021/07/17 04:26:44;;;;;;;4.82;2.38;;;;;;;;;;4900627;29;20030;-91
2021/07/17 04:32:13;;;;;;;4.63;2.35;;;;;;;;;;5252374;23;20090;-91
2021/07/17 04:34:39;;;;;;;7.45;3.33;;;;;;;;;;4958806;28;20027;-90
2021/07/17 04:40:29;;;;;;;9.23;3.63;;;;;;;;;;4977172;28;20521;-90
2021/07/17 04:42:55;;;;;;;6.07;3.47;;;;;;;;;;4976257;28;20031;-90
2021/07/17 04:45:20;;;;;;;9.00;3.35;;;;;;;;;;4975937;28;20034;-91
2021/07/17 05:03:36;;;;;;;8.43;4.80;;;;;;;;;;6154569;22;1627079;-90
2021/07/17 05:06:03;;;;;;;7.22;4.07;;;;;;;;;;6223202;23;20234;-89
2021/07/17 05:08:34;;;;;;;7.35;3.83;;;;;;;;;;6224513;23;20328;-90
2021/07/17 05:11:01;;;;;;;6.63;3.78;;;;;;;;;;6225547;23;20000;-88
2021/07/17 05:13:27;;;;;;;5.28;4.10;;;;;;;;;;6225885;23;20329;-89
2021/07/17 05:15:53;;;;;;;6.68;2.72;;;;;;;;;;6225450;23;20004;-89
2021/07/17 05:18:19;;;;;;;7.03;4.60;;;;;;;;;;6199667;23;20432;-90
2021/07/17 05:20:48;;;;;;;10.20;4.95;;;;;;;;;;6232527;23;20000;-91
2021/07/17 05:23:16;;;;;;;7.35;4.47;;;;;;;;;;6235026;23;20000;-90
2021/07/17 05:25:46;;;;;;;8.07;5.43;;;;;;;;;;6198508;23;20517;-88
2021/07/17 05:28:12;;;;;;;8.23;4.13;;;;;;;;;;6197832;23;20016;-88
2021/07/17 05:30:37;;;;;;;7.80;5.45;;;;;;;;;;6224507;23;20004;-88
2021/07/17 05:33:04;;;;;;;11.02;3.90;;;;;;;;;;6197894;23;20050;-87
2021/07/17 05:35:30;;;;;;;9.18;3.83;;;;;;;;;;6198217;23;20089;-88
2021/07/17 05:37:57;;;;;;;5.32;3.67;;;;;;;;;;6224491;23;20004;-89
2021/07/17 05:40:22;;;;;;;6.88;3.50;;;;;;;;;;6198091;23;20448;-88
2021/07/17 05:42:48;;;;;;;6.47;3.92;;;;;;;;;;6224354;23;20004;-88
2021/07/17 05:45:14;;;;;;;6.60;3.95;;;;;;;;;;6197850;23;20000;-88
2021/07/17 05:47:39;;;;;;;9.20;4.45;;;;;;;;;;6198134;23;20007;-88
2021/07/17 05:50:06;;;;;;;6.38;3.80;;;;;;;;;;6224609;23;20036;-87
2021/07/17 05:52:33;;;;;;;8.82;4.50;;;;;;;;;;6224448;23;20084;-89
2021/07/17 05:54:59;;;;;;;6.20;3.55;;;;;;;;;;6224096;23;20074;-89
2021/07/17 05:57:25;;;;;;;7.80;4.30;;;;;;;;;;6197665;23;20004;-88
2021/07/17 05:59:50;;;;;;;6.57;3.47;;;;;;;;;;6198078;23;20383;-90
2021/07/17 06:02:20;;;;;;;7.07;3.40;;;;;;;;;;6196430;23;20077;-91
2021/07/17 06:04:46;;;;;;;5.07;2.92;;;;;;;;;;6218376;23;20459;-88
2021/07/17 06:07:12;;;;;;;11.90;4.00;;;;;;;;;;6191238;23;20008;-89
2021/07/17 06:09:40;;;;;;;9.05;3.97;;;;;;;;;;6217493;23;20011;-87
2021/07/17 06:12:07;;;;;;;7.13;3.15;;;;;;;;;;6217514;23;20004;-88
2021/07/17 06:14:37;;;;;;;6.38;2.97;;;;;;;;;;6217298;23;20005;-87
2021/07/17 06:17:03;;;;;;;;;;;;;;;;;;6191107;23;20009;-87
2021/07/17 06:19:28;;;;;;;9.85;3.45;;;;;;;;;;6217491;23;19915;-87
2021/07/17 06:21:54;;;;;;;8.00;3.38;;;;;;;;;;6190299;23;20004;-87
2021/07/17 06:24:20;;;;;;;5.25;2.92;;;;;;;;;;6217038;23;20012;-89
2021/07/17 06:26:45;;;;;;;4.68;2.72;;;;;;;;;;6190390;23;20015;-89
2021/07/17 06:29:11;;;;;;;6.13;3.08;;;;;;;;;;6190716;23;20087;-88
2021/07/17 06:31:37;;;;;;;4.97;3.10;;;;;;;;;;6217264;23;20001;-89
2021/07/17 06:34:04;;;;;;;4.50;1.83;;;;;;;;;;6190533;23;20013;-88
2021/07/17 06:36:30;;;;;;;8.40;3.17;;;;;;;;;;6217210;23;20420;-88
2021/07/17 06:38:56;;;;;;;4.70;2.80;;;;;;;;;;6190584;23;20020;-88
2021/07/17 06:41:22;;;;;;;7.68;3.92;;;;;;;;;;6190465;23;20040;-87
2021/07/17 06:43:48;;;;;;;4.53;2.10;;;;;;;;;;6190326;23;20009;-90
2021/07/17 06:46:15;;;;;;;7.00;3.33;;;;;;;;;;6190259;23;20301;-89
2021/07/17 06:48:40;;;;;;;4.88;1.88;;;;;;;;;;6216836;23;20008;-89
2021/07/17 06:51:08;;;;;;;4.28;1.92;;;;;;;;;;6190046;23;20017;-87
2021/07/17 06:53:37;;;;;;;8.25;1.70;;;;;;;;;;6190070;23;20004;-88
2021/07/17 06:56:03;;;;;;;6.10;3.42;;;;;;;;;;6190027;23;20436;-89
2021/07/17 06:58:29;;;;;;;6.80;3.30;;;;;;;;;;6189974;23;20305;-88
2021/07/17 07:00:54;;;;;;;7.47;3.25;;;;;;;;;;6216520;23;20008;-88
2021/07/17 07:03:21;;;;;;;9.10;2.97;;;;;;;;;;6189792;23;20009;-90
2021/07/17 07:05:49;;;;;;;5.88;2.83;;;;;;;;;;6190031;23;20032;-89
2021/07/17 07:08:15;;;;;;;5.15;1.90;;;;;;;;;;6189766;23;20032;-88
2021/07/17 07:10:41;;;;;;;6.22;1.98;;;;;;;;;;6216577;23;20008;-87
2021/07/17 07:13:16;;;;;;;6.38;2.03;;;;;;;;;;6189857;23;20009;-89
2021/07/17 07:15:42;;;;;;;4.65;1.63;;;;;;;;;;6216082;23;20424;-88
2021/07/17 07:18:11;;;;;;;7.18;2.95;;;;;;;;;;6189997;23;20035;-89
2021/07/17 07:20:36;;;;;;;7.03;2.05;;;;;;;;;;6216817;23;20054;-88
2021/07/17 07:23:02;;;;;;;7.20;2.00;;;;;;;;;;6216676;23;20013;-91
2021/07/17 07:25:28;;;;;;;9.65;2.63;;;;;;;;;;6189923;23;20012;-91
2021/07/17 07:27:54;;;;;;;6.40;1.85;;;;;;;;;;6190063;23;20098;-91
2021/07/17 07:30:20;;;;;;;9.30;2.35;;;;;;;;;;6216754;23;20004;-91
2021/07/17 07:32:48;;;;;;;8.23;2.65;;;;;;;;;;6189575;23;20004;-90
2021/07/17 07:35:13;;;;;;;5.45;2.67;;;;;;;;;;6189616;23;20009;-91
2021/07/17 07:37:39;;;;;;;6.40;2.70;;;;;;;;;;6216622;23;20001;-89
2021/07/17 07:40:05;;;;;;;10.77;2.10;;;;;;;;;;6216377;23;20004;-89
2021/07/17 07:42:31;;;;;;;5.43;2.78;;;;;;;;;;6216440;23;20005;-89
2021/07/17 07:44:57;;;;;;;5.82;1.45;;;;;;;;;;6188466;23;20012;-91
2021/07/17 07:47:23;;;;;;;8.30;3.17;;;;;;;;;;6215436;23;20512;-91
2021/07/17 07:49:52;;;;;;;11.90;3.45;;;;;;;;;;6216357;23;20359;-88
2021/07/17 07:52:18;;;;;;;4.82;1.48;;;;;;;;;;6189941;23;20095;-90
2021/07/17 07:54:45;;;;;;;8.55;2.40;;;;;;;;;;6190273;23;20439;-91
2021/07/17 07:57:12;;;;;;;15.98;3.50;;;;;;;;;;6189757;23;20015;-92
2021/07/17 07:59:38;;;;;;;20.95;4.63;;;;;;;;;;6216321;23;20031;-91
2021/07/17 08:02:04;;;;;;;16.23;4.38;;;;;;;;;;6189779;23;20429;-91
2021/07/17 08:04:30;;;;;;;7.68;3.03;;;;;;;;;;6189593;23;20004;-90
2021/07/17 08:06:56;;;;;;;20.50;5.78;;;;;;;;;;6216155;23;20012;-92
2021/07/17 08:09:21;;;;;;;13.88;3.58;;;;;;;;;;6189747;23;20015;-92
2021/07/17 08:11:47;;;;;;;13.60;4.20;;;;;;;;;;6192269;23;20040;-90
2021/07/17 08:14:13;;;;;;;67.35;13.63;;;;;;;;;;6217765;23;20008;-91
2021/07/17 08:16:39;;;;;;;28.95;5.35;;;;;;;;;;6214568;23;20040;-90
2021/07/17 08:19:04;;;;;;;26.77;5.93;;;;;;;;;;6210342;23;20028;-91
2021/07/17 08:21:30;;;;;;;45.92;14.57;;;;;;;;;;6203453;23;20497;-91
2021/07/17 08:23:56;;;;;;;5.13;2.47;;;;;;;;;;6218195;23;20009;-90
2021/07/17 08:26:22;;;;;;;6.63;2.10;;;;;;;;;;6190611;23;20004;-91
2021/07/17 08:28:47;;;;;;;6.07;2.53;;;;;;;;;;6190056;23;20336;-91
2021/07/17 08:31:13;;;;;;;6.93;3.33;;;;;;;;;;6190115;23;20012;-92
2021/07/17 08:33:39;;;;;;;10.35;2.38;;;;;;;;;;6189465;23;20035;-90
2021/07/17 08:36:05;;;;;;;5.28;2.30;;;;;;;;;;6189509;23;20012;-92
2021/07/17 08:38:31;;;;;;;8.10;2.95;;;;;;;;;;6189686;23;20309;-89
2021/07/17 08:40:58;;;;;;;6.78;2.63;;;;;;;;;;6216361;23;20416;-90
2021/07/17 08:43:25;;;;;;;9.82;3.15;;;;;;;;;;6189612;23;20016;-88
2021/07/17 08:45:52;;;;;;;14.70;8.07;;;;;;;;;;6189250;23;20004;-91
2021/07/17 08:48:21;;;;;;;14.75;3.33;;;;;;;;;;6189799;23;20116;-88
2021/07/17 08:50:48;;;;;;;12.27;3.72;;;;;;;;;;6189794;23;20420;-89
2021/07/17 08:53:17;;;;;;;7.55;2.67;;;;;;;;;;6189709;23;20027;-90
2021/07/17 08:55:43;;;;;;;7.07;3.10;;;;;;;;;;6189676;23;20019;-93
2021/07/17 08:58:08;;;;;;;7.47;3.67;;;;;;;;;;6216024;23;20020;-91
2021/07/17 09:00:37;;;;;;;13.63;7.63;;;;;;;;;;6189397;23;19996;-90
2021/07/17 09:03:10;;;;;;;8.23;3.22;;;;;;;;;;6215835;23;20016;-90
2021/07/17 09:05:42;;;;;;;10.90;2.85;;;;;;;;;;6189576;23;20055;-90
2021/07/17 09:08:10;;;;;;;12.30;6.18;;;;;;;;;;6216149;23;20070;-91
2021/07/17 09:10:38;;;;;;;123.03;29.77;;;;;;;;;;6189319;23;20062;-90
2021/07/17 09:13:22;;;;;;;9.38;3.70;;;;;;;;;;6191097;23;20035;-90
2021/07/17 09:16:06;;;;;;;6.90;1.98;;;;;;;;;;6197817;23;20001;-90
2021/07/17 09:18:44;;;;;;;5.00;2.75;;;;;;;;;;6219600;23;20000;-90
2021/07/17 09:21:12;;;;;;;8.38;5.85;;;;;;;;;;6193722;23;20001;-89
2021/07/17 09:23:49;;;;;;;7.38;2.50;;;;;;;;;;6201460;23;20068;-90
2021/07/17 09:26:49;;;;;;;6.57;2.17;;;;;;;;;;6206220;23;20420;-91
2021/07/17 09:31:49;;;;;;;19.13;6.53;;;;;;;;;;6206795;23;20032;-92
2021/07/17 09:34:22;;;;;;;31.25;5.40;;;;;;;;;;6161248;23;20080;-89
2021/07/17 09:36:56;;;;;;;9.32;2.95;;;;;;;;;;6155732;23;20045;-91
2021/07/17 09:39:26;;;;;;;7.80;2.65;;;;;;;;;;6126898;23;20084;-90
2021/07/17 09:41:57;;;;;;;8.18;2.88;;;;;;;;;;6131964;23;20049;-90
2021/07/17 09:44:24;;;;;;;14.25;4.78;;;;;;;;;;6133616;23;20006;-91
2021/07/17 09:46:50;;;;;;;9.90;3.67;;;;;;;;;;6154484;23;20085;-89
2021/07/17 09:49:20;;;;;;;24.33;17.75;;;;;;;;;;6129331;23;20009;-88
2021/07/17 09:51:46;;;;;;;6.47;2.33;;;;;;;;;;6128837;23;20009;-88
2021/07/17 09:54:12;;;;;;;12.13;2.42;;;;;;;;;;6128858;23;20045;-89
2021/07/17 09:56:42;;;;;;;19.75;3.30;;;;;;;;;;6153525;23;20078;-90
2021/07/17 09:59:12;;;;;;;7.38;2.72;;;;;;;;;;6155700;23;20434;-88
2021/07/17 10:01:39;;;;;;;6.90;2.17;;;;;;;;;;6162961;23;20362;-89
2021/07/17 10:04:13;;;;;;;84.55;75.75;;;;;;;;;;6130817;23;20005;-89
2021/07/17 10:06:53;;;;;;;16.33;3.85;;;;;;;;;;6131669;23;20320;-89
2021/07/17 10:09:19;;;;;;;10.05;3.70;;;;;;;;;;6160741;23;20005;-88
2021/07/17 10:11:55;;;;;;;7.57;2.53;;;;;;;;;;6167566;23;20051;-90
2021/07/17 10:14:29;;;;;;;7.43;2.70;;;;;;;;;;6202431;23;20012;-91
2021/07/17 10:18:48;;;;;;;5.22;1.83;;;;;;;;;;5115164;27;20377;-88
